Felix-Klein-Gymnasium, Gttingen, 150m NN
Wetterdaten: aktuell Montag, 26.09.2022 15:15
Datum Zeit Temp. A. Feuchte A. Luftdruck Regen Wind Richtung Richtung Sonnenschein Taupunkt Windchill Windben
26.09.2022 15:15 13,9 C 64 % 999,6 hPa 0,0 mm 7,0 km/h (2 Bft) W-SW 250 0 min 7,2 C 13,9 C 30,6 km/h (5 Bft)
26.09.2022 15:00 13,9 C 65 % 999,7 hPa 0,0 mm 8,3 km/h (2 Bft) NW 318 0 min 7,4 C 13,9 C 25,7 km/h (4 Bft)
26.09.2022 14:45 14,2 C 63 % 1000,0 hPa 0,0 mm 8,8 km/h (2 Bft) N 355 0 min 7,3 C 14,2 C 27,4 km/h (4 Bft)
26.09.2022 14:30 14,3 C 61 % 1000,1 hPa 0,0 mm 12,6 km/h (3 Bft) N-NW 348 0 min 6,9 C 14,3 C 35,4 km/h (5 Bft)
26.09.2022 14:15 14,4 C 62 % 1000,3 hPa 0,0 mm 11,7 km/h (2 Bft) N 350 15 min 7,2 C 14,4 C 33,8 km/h (5 Bft)
26.09.2022 14:00 14,2 C 62 % 1000,5 hPa 0,0 mm 11,1 km/h (2 Bft) N-NO 20 0 min 7,0 C 14,2 C 27,4 km/h (4 Bft)
26.09.2022 13:45 14,2 C 62 % 1000,7 hPa 0,0 mm 11,6 km/h (2 Bft) N 9 0 min 7,0 C 14,2 C 37,0 km/h (5 Bft)
26.09.2022 13:30 14,0 C 62 % 1001,0 hPa 0,0 mm 9,2 km/h (2 Bft) N-NO 29 15 min 6,8 C 14,0 C 37,0 km/h (5 Bft)
26.09.2022 13:15 14,4 C 61 % 1001,2 hPa 0,0 mm 8,8 km/h (2 Bft) N 355 0 min 7,0 C 14,4 C 24,1 km/h (4 Bft)
26.09.2022 13:00 14,4 C 63 % 1001,4 hPa 0,0 mm 8,5 km/h (2 Bft) N 355 15 min 7,4 C 14,4 C 30,6 km/h (5 Bft)
26.09.2022 12:45 13,9 C 65 % 1001,3 hPa 0,0 mm 9,1 km/h (2 Bft) N 355 15 min 7,4 C 13,9 C 29,0 km/h (5 Bft)
26.09.2022 12:30 13,7 C 67 % 1001,5 hPa 0,0 mm 11,6 km/h (2 Bft) N 355 15 min 7,7 C 13,7 C 32,2 km/h (5 Bft)
26.09.2022 12:15 13,5 C 68 % 1001,9 hPa 0,0 mm 9,1 km/h (2 Bft) N-NW 334 15 min 7,7 C 13,5 C 37,0 km/h (5 Bft)
26.09.2022 12:00 12,8 C 72 % 1001,9 hPa 0,0 mm 11,7 km/h (2 Bft) N 9 15 min 7,9 C 12,8 C 32,2 km/h (5 Bft)
26.09.2022 11:45 12,8 C 73 % 1002,2 hPa 0,0 mm 12,7 km/h (3 Bft) N-NO 19 15 min 8,1 C 12,8 C 32,2 km/h (5 Bft)
26.09.2022 11:30 12,4 C 75 % 1002,5 hPa 0,0 mm 10,9 km/h (2 Bft) N-NO 22 0 min 8,1 C 12,4 C 33,8 km/h (5 Bft)
26.09.2022 11:15 12,4 C 76 % 1002,4 hPa 0,0 mm 9,5 km/h (2 Bft) N 9 0 min 8,3 C 12,4 C 22,5 km/h (4 Bft)
26.09.2022 11:00 12,2 C 77 % 1002,6 hPa 0,0 mm 8,2 km/h (2 Bft) O 98 15 min 8,3 C 12,2 C 27,4 km/h (4 Bft)
26.09.2022 10:45 12,7 C 77 % 1002,6 hPa 0,0 mm 4,8 km/h (1 Bft) N-NW 332 0 min 8,8 C 12,7 C 19,3 km/h (3 Bft)
26.09.2022 10:30 12,4 C 79 % 1002,7 hPa 0,0 mm 2,8 km/h (1 Bft) NW 325 15 min 8,9 C 12,4 C 16,1 km/h (3 Bft)
26.09.2022 10:15 11,7 C 80 % 1002,9 hPa 0,0 mm 4,1 km/h (1 Bft) N 351 15 min 8,4 C 11,7 C 17,7 km/h (3 Bft)
26.09.2022 10:00 11,1 C 82 % 1002,9 hPa 0,0 mm 3,4 km/h (1 Bft) N-NW 343 0 min 8,1 C 11,1 C 19,3 km/h (3 Bft)
26.09.2022 09:45 10,7 C 84 % 1003,1 hPa 0,0 mm 1,5 km/h (1 Bft) NW 319 15 min 8,1 C 10,7 C 12,9 km/h (3 Bft)
26.09.2022 09:30 10,3 C 85 % 1003,3 hPa 0,0 mm 5,4 km/h (1 Bft) N-NW 347 0 min 7,9 C 10,3 C 17,7 km/h (3 Bft)
26.09.2022 09:15 9,9 C 86 % 1003,3 hPa 0,0 mm 3,5 km/h (1 Bft) NW 324 0 min 7,7 C 9,9 C 14,5 km/h (3 Bft)
26.09.2022 09:00 9,7 C 87 % 1003,3 hPa 0,0 mm 1,4 km/h (1 Bft) NW 320 0 min 7,6 C 9,7 C 12,9 km/h (3 Bft)
26.09.2022 08:45 9,3 C 88 % 1003,5 hPa 0,0 mm 1,1 km/h (1 Bft) NW 320 0 min 7,4 C 9,3 C 14,5 km/h (3 Bft)
26.09.2022 08:30 9,0 C 88 % 1003,8 hPa 0,0 mm 1,7 km/h (1 Bft) NW 325 0 min 7,1 C 9,0 C 12,9 km/h (3 Bft)
26.09.2022 08:15 8,9 C 88 % 1003,9 hPa 0,0 mm 4,4 km/h (1 Bft) NW 324 0 min 7,0 C 8,9 C 14,5 km/h (3 Bft)
26.09.2022 08:00 8,8 C 88 % 1004,0 hPa 0,0 mm 3,4 km/h (1 Bft) NW 325 0 min 6,9 C 8,8 C 11,3 km/h (2 Bft)
26.09.2022 07:45 8,8 C 87 % 1004,0 hPa 0,0 mm 0,3 km/h (0 Bft) N-NW 342 0 min 6,8 C 8,8 C 8,0 km/h (2 Bft)
26.09.2022 07:30 8,8 C 87 % 1004,2 hPa 0,0 mm 0,0 km/h (0 Bft) N 355 15 min 6,8 C 8,8 C 3,2 km/h (1 Bft)
26.09.2022 07:15 8,8 C 88 % 1004,3 hPa 0,0 mm 1,1 km/h (1 Bft) W 271 0 min 6,9 C 8,8 C 9,7 km/h (2 Bft)
26.09.2022 07:00 8,7 C 88 % 1004,5 hPa 0,0 mm 0,0 km/h (0 Bft) N-NW 328 0 min 6,8 C 8,7 C 0,0 km/h (0 Bft)
26.09.2022 06:45 8,7 C 88 % 1004,6 hPa 0,0 mm 0,2 km/h (0 Bft) N-NW 328 0 min 6,8 C 8,7 C 6,4 km/h (2 Bft)
26.09.2022 06:30 8,6 C 88 % 1004,8 hPa 0,0 mm 0,4 km/h (0 Bft) N-NW 327 0 min 6,7 C 8,6 C 8,0 km/h (2 Bft)
26.09.2022 06:15 8,4 C 89 % 1005,0 hPa 0,0 mm 0,1 km/h (0 Bft) N-NW 327 0 min 6,7 C 8,4 C 4,8 km/h (1 Bft)
26.09.2022 06:00 8,4 C 89 % 1005,2 hPa 0,0 mm 0,1 km/h (0 Bft) N-NW 330 0 min 6,7 C 8,4 C 6,4 km/h (2 Bft)
26.09.2022 05:45 8,3 C 89 % 1005,4 hPa 0,0 mm 0,8 km/h (0 Bft) N-NW 327 0 min 6,6 C 8,3 C 9,7 km/h (2 Bft)
26.09.2022 05:30 8,2 C 90 % 1005,5 hPa 0,0 mm 0,7 km/h (0 Bft) NW 317 0 min 6,7 C 8,2 C 8,0 km/h (2 Bft)
26.09.2022 05:15 7,9 C 90 % 1005,8 hPa 0,0 mm 0,4 km/h (0 Bft) NW 315 0 min 6,4 C 7,9 C 9,7 km/h (2 Bft)
26.09.2022 05:00 7,9 C 90 % 1006,0 hPa 0,0 mm 0,0 km/h (0 Bft) NW 315 0 min 6,4 C 7,9 C 1,6 km/h (1 Bft)
26.09.2022 04:45 7,8 C 91 % 1006,2 hPa 0,0 mm 0,2 km/h (0 Bft) NW 315 0 min 6,4 C 7,8 C 8,0 km/h (2 Bft)
26.09.2022 04:30 7,7 C 92 % 1006,3 hPa 0,0 mm 3,1 km/h (1 Bft) NW 313 0 min 6,5 C 7,7 C 9,7 km/h (2 Bft)
26.09.2022 04:15 7,5 C 92 % 1006,5 hPa 0,0 mm 1,1 km/h (1 Bft) S 181 0 min 6,3 C 7,5 C 8,0 km/h (2 Bft)
26.09.2022 04:00 7,4 C 92 % 1006,7 hPa 0,0 mm 0,0 km/h (0 Bft) S 178 0 min 6,2 C 7,4 C 0,0 km/h (0 Bft)
26.09.2022 03:45 7,2 C 92 % 1006,8 hPa 0,0 mm 0,0 km/h (0 Bft) S 178 0 min 6,0 C 7,2 C 0,0 km/h (0 Bft)
26.09.2022 03:30 7,2 C 92 % 1007,0 hPa 0,0 mm 0,0 km/h (0 Bft) S 178 0 min 6,0 C 7,2 C 0,0 km/h (0 Bft)
26.09.2022 03:15 7,3 C 92 % 1007,1 hPa 0,0 mm 0,0 km/h (0 Bft) S 178 0 min 6,1 C 7,3 C 0,0 km/h (0 Bft)
26.09.2022 03:00 7,2 C 92 % 1007,3 hPa 0,0 mm 0,0 km/h (0 Bft) S 178 0 min 6,0 C 7,2 C 0,0 km/h (0 Bft)
26.09.2022 02:45 7,6 C 91 % 1007,5 hPa 0,0 mm 0,0 km/h (0 Bft) S 178 0 min 6,2 C 7,6 C 0,0 km/h (0 Bft)
26.09.2022 02:30 7,9 C 91 % 1007,7 hPa 0,0 mm 0,0 km/h (0 Bft) S 178 0 min 6,5 C 7,9 C 0,0 km/h (0 Bft)
26.09.2022 02:15 8,3 C 91 % 1007,9 hPa 0,0 mm 0,0 km/h (0 Bft) S 178 0 min 6,9 C 8,3 C 0,0 km/h (0 Bft)
26.09.2022 02:00 8,4 C 91 % 1008,0 hPa 0,0 mm 0,0 km/h (0 Bft) S 178 0 min 7,0 C 8,4 C 0,0 km/h (0 Bft)
26.09.2022 01:45 8,6 C 91 % 1008,1 hPa 0,0 mm 0,0 km/h (0 Bft) S 178 0 min 7,2 C 8,6 C 0,0 km/h (0 Bft)
26.09.2022 01:30 8,4 C 91 % 1008,2 hPa 0,0 mm 0,0 km/h (0 Bft) S 178 0 min 7,0 C 8,4 C 0,0 km/h (0 Bft)
26.09.2022 01:15 8,6 C 91 % 1008,3 hPa 0,0 mm 0,0 km/h (0 Bft) S 178 0 min 7,2 C 8,6 C 0,0 km/h (0 Bft)
26.09.2022 01:00 8,8 C 91 % 1008,3 hPa 0,0 mm 0,0 km/h (0 Bft) S 178 0 min 7,4 C 8,8 C 0,0 km/h (0 Bft)
26.09.2022 00:45 8,9 C 91 % 1008,4 hPa 0,0 mm 0,0 km/h (0 Bft) S 178 0 min 7,5 C 8,9 C 0,0 km/h (0 Bft)
26.09.2022 00:30 9,1 C 90 % 1008,4 hPa 0,0 mm 0,0 km/h (0 Bft) S 178 0 min 7,5 C 9,1 C 0,0 km/h (0 Bft)
26.09.2022 00:15 9,3 C 89 % 1008,4 hPa 0,0 mm 0,0 km/h (0 Bft) S 178 0 min 7,6 C 9,3 C 0,0 km/h (0 Bft)
26.09.2022 00:00 9,7 C 89 % 1008,6 hPa 0,0 mm 0,0 km/h (0 Bft) S 178 0 min 8,0 C 9,7 C 0,0 km/h (0 Bft)
25.09.2022 23:45 10,0 C 88 % 1008,6 hPa 0,0 mm 0,0 km/h (0 Bft) N 0 0 min 8,1 C 10,0 C 0,0 km/h (0 Bft)
25.09.2022 23:30 10,5 C 86 % 1008,8 hPa 0,0 mm 0,0 km/h (0 Bft) N 0 0 min 8,3 C 10,5 C 0,0 km/h (0 Bft)
25.09.2022 23:15 10,8 C 86 % 1008,8 hPa 0,0 mm 0,0 km/h (0 Bft) N 0 0 min 8,6 C 10,8 C 0,0 km/h (0 Bft)
25.09.2022 23:00 11,2 C 85 % 1008,9 hPa 0,0 mm 0,0 km/h (0 Bft) S 178 0 min 8,8 C 11,2 C 0,0 km/h (0 Bft)
25.09.2022 22:45 11,7 C 83 % 1008,8 hPa 0,0 mm 0,0 km/h (0 Bft) S 178 0 min 8,9 C 11,7 C 0,0 km/h (0 Bft)
25.09.2022 22:30 12,0 C 82 % 1008,9 hPa 0,0 mm 0,0 km/h (0 Bft) S 178 0 min 9,0 C 12,0 C 0,0 km/h (0 Bft)
25.09.2022 22:15 12,4 C 80 % 1009,0 hPa 0,0 mm 0,0 km/h (0 Bft) S 178 0 min 9,0 C 12,4 C 0,0 km/h (0 Bft)
25.09.2022 22:00 12,5 C 80 % 1009,1 hPa 0,0 mm 0,0 km/h (0 Bft) S 178 0 min 9,1 C 12,5 C 0,0 km/h (0 Bft)
25.09.2022 21:45 12,6 C 80 % 1009,2 hPa 0,0 mm 0,0 km/h (0 Bft) S 178 0 min 9,2 C 12,6 C 0,0 km/h (0 Bft)
25.09.2022 21:30 12,7 C 80 % 1009,1 hPa 0,0 mm 0,0 km/h (0 Bft) S 178 0 min 9,3 C 12,7 C 0,0 km/h (0 Bft)
25.09.2022 21:15 12,8 C 79 % 1009,1 hPa 0,0 mm 0,0 km/h (0 Bft) S 178 0 min 9,2 C 12,8 C 0,0 km/h (0 Bft)
25.09.2022 21:00 12,8 C 79 % 1009,2 hPa 0,0 mm 0,0 km/h (0 Bft) S 178 0 min 9,2 C 12,8 C 0,0 km/h (0 Bft)
25.09.2022 20:45 12,8 C 79 % 1009,1 hPa 0,0 mm 0,0 km/h (0 Bft) S 178 0 min 9,2 C 12,8 C 0,0 km/h (0 Bft)
25.09.2022 20:30 12,9 C 78 % 1009,1 hPa 0,0 mm 0,0 km/h (0 Bft) S 178 0 min 9,2 C 12,9 C 0,0 km/h (0 Bft)
25.09.2022 20:15 13,2 C 77 % 1009,2 hPa 0,0 mm 1,2 km/h (1 Bft) S 178 0 min 9,3 C 13,2 C 8,0 km/h (2 Bft)
25.09.2022 20:00 13,4 C 77 % 1009,1 hPa 0,0 mm 0,8 km/h (0 Bft) S 178 0 min 9,5 C 13,4 C 9,7 km/h (2 Bft)
25.09.2022 19:45 13,7 C 76 % 1009,0 hPa 0,0 mm 0,7 km/h (0 Bft) S 178 0 min 9,5 C 13,7 C 8,0 km/h (2 Bft)
25.09.2022 19:30 13,9 C 75 % 1009,0 hPa 0,0 mm 0,1 km/h (0 Bft) S 177 0 min 9,5 C 13,9 C 4,8 km/h (1 Bft)
25.09.2022 19:15 14,1 C 75 % 1008,9 hPa 0,0 mm 0,2 km/h (0 Bft) S 179 0 min 9,7 C 14,1 C 6,4 km/h (2 Bft)
25.09.2022 19:00 14,3 C 73 % 1009,0 hPa 0,0 mm 0,2 km/h (0 Bft) S 180 15 min 9,5 C 14,3 C 4,8 km/h (1 Bft)
25.09.2022 18:45 14,4 C 72 % 1009,0 hPa 0,0 mm 0,7 km/h (0 Bft) S-SO 164 0 min 9,4 C 14,4 C 9,7 km/h (2 Bft)
25.09.2022 18:30 14,6 C 71 % 1008,9 hPa 0,0 mm 0,0 km/h (0 Bft) S-SW 211 0 min 9,4 C 14,6 C 0,0 km/h (0 Bft)
25.09.2022 18:15 14,7 C 70 % 1009,0 hPa 0,0 mm 0,0 km/h (0 Bft) S-SW 211 0 min 9,3 C 14,7 C 0,0 km/h (0 Bft)
25.09.2022 18:00 14,9 C 69 % 1009,0 hPa 0,0 mm 0,0 km/h (0 Bft) S-SW 211 0 min 9,3 C 14,9 C 0,0 km/h (0 Bft)
25.09.2022 17:45 15,0 C 66 % 1009,0 hPa 0,0 mm 0,0 km/h (0 Bft) S-SW 211 0 min 8,7 C 15,0 C 0,0 km/h (0 Bft)
25.09.2022 17:30 14,9 C 67 % 1009,0 hPa 0,0 mm 0,0 km/h (0 Bft) S-SW 211 0 min 8,8 C 14,9 C 0,0 km/h (0 Bft)
25.09.2022 17:15 15,0 C 68 % 1009,2 hPa 0,0 mm 0,1 km/h (0 Bft) S-SW 211 0 min 9,1 C 15,0 C 6,4 km/h (2 Bft)
25.09.2022 17:00 15,1 C 68 % 1009,1 hPa 0,0 mm 0,0 km/h (0 Bft) S-SW 211 0 min 9,2 C 15,1 C 0,0 km/h (0 Bft)
25.09.2022 16:45 14,9 C 68 % 1009,3 hPa 0,0 mm 0,0 km/h (0 Bft) S-SW 211 0 min 9,0 C 14,9 C 0,0 km/h (0 Bft)
25.09.2022 16:30 14,8 C 69 % 1009,5 hPa 0,0 mm 0,0 km/h (0 Bft) S-SW 211 0 min 9,2 C 14,8 C 0,0 km/h (0 Bft)
25.09.2022 16:15 14,8 C 69 % 1009,6 hPa 0,0 mm 0,6 km/h (0 Bft) S-SW 211 0 min 9,2 C 14,8 C 9,7 km/h (2 Bft)
25.09.2022 16:00 14,8 C 70 % 1009,7 hPa 0,0 mm 0,5 km/h (0 Bft) S-SW 211 0 min 9,4 C 14,8 C 9,7 km/h (2 Bft)
_ Min-Zeit 03:00 13:15 15:15 - 16:30 - - - 03:00 03:00 16:30
Minimum _ 7,2 C 61 % 999,6 hPa - 0,0 km/h (0 Bft) - - - 6,0 C 7,2 C 0,0 km/h (0 Bft)
_ Max-Zeit 17:00 03:00 16:00 16:00 11:45 - - 19:00 19:15 17:00 12:15
Maximum _ 15,1 C 92 % 1009,7 hPa 0,0 mm 12,7 km/h
N-NO (3 Bft)
- - 15 min 9,7 C 15,1 C 37,0 km/h
N-NO (5 Bft)
Durchschnitt _ 11,5 C 79 % 1006,2 hPa #0,0 mm 2,3 km/h (1 Bft) NW - #3:15 h 7,9 C 11,5 C 9,8 km/h (2 Bft)